sensor_id;sensor_type;location;lat;lon;timestamp;P1;durP1;ratioP1;P2;durP2;ratioP2
11572;SDS011;5842;52.426;4.886;2022-09-13T00:02:21;19.87;;;15.40;;
11572;SDS011;5842;52.426;4.886;2022-09-13T00:04:48;21.93;;;17.50;;
11572;SDS011;5842;52.426;4.886;2022-09-13T00:07:16;22.17;;;15.67;;
11572;SDS011;5842;52.426;4.886;2022-09-13T00:09:43;17.33;;;13.40;;
11572;SDS011;5842;52.426;4.886;2022-09-13T00:12:10;16.37;;;12.67;;
11572;SDS011;5842;52.426;4.886;2022-09-13T00:14:38;16.00;;;12.87;;
11572;SDS011;5842;52.426;4.886;2022-09-13T00:17:06;13.80;;;11.77;;
11572;SDS011;5842;52.426;4.886;2022-09-13T00:19:34;19.97;;;15.00;;
11572;SDS011;5842;52.426;4.886;2022-09-13T00:22:01;17.90;;;14.53;;
11572;SDS011;5842;52.426;4.886;2022-09-13T00:24:30;18.20;;;14.70;;
11572;SDS011;5842;52.426;4.886;2022-09-13T00:26:58;17.33;;;13.10;;
11572;SDS011;5842;52.426;4.886;2022-09-13T00:29:25;16.53;;;12.57;;
11572;SDS011;5842;52.426;4.886;2022-09-13T00:31:52;18.10;;;13.30;;
11572;SDS011;5842;52.426;4.886;2022-09-13T00:34:21;18.60;;;14.07;;
11572;SDS011;5842;52.426;4.886;2022-09-13T00:36:48;16.47;;;13.00;;
11572;SDS011;5842;52.426;4.886;2022-09-13T00:39:15;17.43;;;13.03;;
11572;SDS011;5842;52.426;4.886;2022-09-13T00:41:42;17.20;;;13.30;;
11572;SDS011;5842;52.426;4.886;2022-09-13T00:47:17;17.03;;;13.47;;
11572;SDS011;5842;52.426;4.886;2022-09-13T00:49:48;18.57;;;13.77;;
11572;SDS011;5842;52.426;4.886;2022-09-13T00:52:19;17.40;;;13.27;;
11572;SDS011;5842;52.426;4.886;2022-09-13T00:54:49;15.90;;;13.03;;
11572;SDS011;5842;52.426;4.886;2022-09-13T00:57:20;17.00;;;12.60;;
11572;SDS011;5842;52.426;4.886;2022-09-13T00:59:50;14.63;;;11.80;;
11572;SDS011;5842;52.426;4.886;2022-09-13T01:02:24;17.77;;;12.83;;
11572;SDS011;5842;52.426;4.886;2022-09-13T01:04:54;14.57;;;11.53;;
11572;SDS011;5842;52.426;4.886;2022-09-13T01:07:21;16.30;;;12.03;;
11572;SDS011;5842;52.426;4.886;2022-09-13T01:09:48;15.23;;;10.97;;
11572;SDS011;5842;52.426;4.886;2022-09-13T01:12:20;14.70;;;11.53;;
11572;SDS011;5842;52.426;4.886;2022-09-13T01:14:57;17.47;;;12.80;;
11572;SDS011;5842;52.426;4.886;2022-09-13T01:17:27;16.60;;;13.10;;
11572;SDS011;5842;52.426;4.886;2022-09-13T01:19:57;14.93;;;12.00;;
11572;SDS011;5842;52.426;4.886;2022-09-13T01:22:33;14.73;;;12.00;;
11572;SDS011;5842;52.426;4.886;2022-09-13T01:28:25;14.07;;;11.40;;
11572;SDS011;5842;52.426;4.886;2022-09-13T01:31:10;17.23;;;12.27;;
11572;SDS011;5842;52.426;4.886;2022-09-13T01:33:52;14.23;;;11.27;;
11572;SDS011;5842;52.426;4.886;2022-09-13T01:36:32;12.73;;;10.23;;
11572;SDS011;5842;52.426;4.886;2022-09-13T01:39:08;12.33;;;10.20;;
11572;SDS011;5842;52.426;4.886;2022-09-13T01:41:45;12.50;;;10.27;;
11572;SDS011;5842;52.426;4.886;2022-09-13T01:44:27;12.30;;;9.03;;
11572;SDS011;5842;52.426;4.886;2022-09-13T01:47:08;11.63;;;9.43;;
11572;SDS011;5842;52.426;4.886;2022-09-13T01:49:45;10.03;;;8.90;;
11572;SDS011;5842;52.426;4.886;2022-09-13T01:52:22;11.40;;;9.07;;
11572;SDS011;5842;52.426;4.886;2022-09-13T01:54:56;10.47;;;8.40;;
11572;SDS011;5842;52.426;4.886;2022-09-13T01:57:31;11.10;;;8.60;;
11572;SDS011;5842;52.426;4.886;2022-09-13T02:00:03;10.50;;;8.80;;
11572;SDS011;5842;52.426;4.886;2022-09-13T02:02:36;10.40;;;7.37;;
11572;SDS011;5842;52.426;4.886;2022-09-13T02:05:09;8.77;;;7.67;;
11572;SDS011;5842;52.426;4.886;2022-09-13T02:07:42;9.13;;;6.90;;
11572;SDS011;5842;52.426;4.886;2022-09-13T02:10:14;10.07;;;7.17;;
11572;SDS011;5842;52.426;4.886;2022-09-13T02:12:46;9.40;;;7.53;;
11572;SDS011;5842;52.426;4.886;2022-09-13T02:15:19;7.57;;;6.63;;
11572;SDS011;5842;52.426;4.886;2022-09-13T02:17:53;9.50;;;7.33;;
11572;SDS011;5842;52.426;4.886;2022-09-13T02:20:27;8.03;;;6.97;;
11572;SDS011;5842;52.426;4.886;2022-09-13T02:23:01;9.43;;;7.30;;
11572;SDS011;5842;52.426;4.886;2022-09-13T02:25:31;11.57;;;8.73;;
11572;SDS011;5842;52.426;4.886;2022-09-13T02:28:01;9.83;;;8.10;;
11572;SDS011;5842;52.426;4.886;2022-09-13T02:30:31;9.97;;;7.93;;
11572;SDS011;5842;52.426;4.886;2022-09-13T02:33:07;10.07;;;8.30;;
11572;SDS011;5842;52.426;4.886;2022-09-13T02:35:37;9.93;;;7.70;;
11572;SDS011;5842;52.426;4.886;2022-09-13T02:38:11;7.97;;;6.67;;
11572;SDS011;5842;52.426;4.886;2022-09-13T02:40:44;9.00;;;7.10;;
11572;SDS011;5842;52.426;4.886;2022-09-13T02:43:19;8.30;;;7.40;;
11572;SDS011;5842;52.426;4.886;2022-09-13T02:45:55;8.60;;;7.10;;
11572;SDS011;5842;52.426;4.886;2022-09-13T02:48:38;8.47;;;6.97;;
11572;SDS011;5842;52.426;4.886;2022-09-13T02:51:14;9.27;;;7.97;;
11572;SDS011;5842;52.426;4.886;2022-09-13T02:53:51;8.17;;;7.00;;
11572;SDS011;5842;52.426;4.886;2022-09-13T02:56:28;8.37;;;7.17;;
11572;SDS011;5842;52.426;4.886;2022-09-13T02:59:06;9.63;;;7.27;;
11572;SDS011;5842;52.426;4.886;2022-09-13T03:01:38;11.30;;;7.67;;
11572;SDS011;5842;52.426;4.886;2022-09-13T03:04:11;9.17;;;8.13;;
11572;SDS011;5842;52.426;4.886;2022-09-13T03:06:39;9.00;;;7.57;;
11572;SDS011;5842;52.426;4.886;2022-09-13T03:09:06;11.63;;;8.73;;
11572;SDS011;5842;52.426;4.886;2022-09-13T03:11:38;11.87;;;10.23;;
11572;SDS011;5842;52.426;4.886;2022-09-13T03:14:23;10.90;;;9.03;;
11572;SDS011;5842;52.426;4.886;2022-09-13T03:17:04;11.57;;;9.50;;
11572;SDS011;5842;52.426;4.886;2022-09-13T03:19:43;9.93;;;8.67;;
11572;SDS011;5842;52.426;4.886;2022-09-13T03:25:27;11.93;;;9.40;;
11572;SDS011;5842;52.426;4.886;2022-09-13T03:28:07;12.73;;;10.10;;
11572;SDS011;5842;52.426;4.886;2022-09-13T03:30:47;15.20;;;11.77;;
11572;SDS011;5842;52.426;4.886;2022-09-13T03:33:19;12.30;;;10.97;;
11572;SDS011;5842;52.426;4.886;2022-09-13T03:35:56;12.17;;;10.33;;
11572;SDS011;5842;52.426;4.886;2022-09-13T03:38:30;16.57;;;12.77;;
11572;SDS011;5842;52.426;4.886;2022-09-13T03:41:04;14.13;;;10.83;;
11572;SDS011;5842;52.426;4.886;2022-09-13T03:43:35;13.57;;;10.50;;
11572;SDS011;5842;52.426;4.886;2022-09-13T03:46:08;13.97;;;11.43;;
11572;SDS011;5842;52.426;4.886;2022-09-13T03:48:37;15.30;;;12.17;;
11572;SDS011;5842;52.426;4.886;2022-09-13T03:51:08;14.33;;;11.20;;
11572;SDS011;5842;52.426;4.886;2022-09-13T03:53:38;14.47;;;12.47;;
11572;SDS011;5842;52.426;4.886;2022-09-13T03:56:11;18.30;;;13.73;;
11572;SDS011;5842;52.426;4.886;2022-09-13T03:58:39;19.77;;;14.23;;
11572;SDS011;5842;52.426;4.886;2022-09-13T04:01:06;16.93;;;13.90;;
11572;SDS011;5842;52.426;4.886;2022-09-13T04:03:34;17.67;;;13.97;;
11572;SDS011;5842;52.426;4.886;2022-09-13T04:06:01;18.27;;;14.50;;
11572;SDS011;5842;52.426;4.886;2022-09-13T04:08:32;15.97;;;13.23;;
11572;SDS011;5842;52.426;4.886;2022-09-13T04:10:59;17.73;;;13.90;;
11572;SDS011;5842;52.426;4.886;2022-09-13T04:13:27;18.40;;;14.87;;
11572;SDS011;5842;52.426;4.886;2022-09-13T04:15:54;16.90;;;13.80;;
11572;SDS011;5842;52.426;4.886;2022-09-13T04:18:26;18.97;;;13.60;;
11572;SDS011;5842;52.426;4.886;2022-09-13T04:20:53;16.27;;;13.33;;
11572;SDS011;5842;52.426;4.886;2022-09-13T04:23:21;16.57;;;13.20;;
11572;SDS011;5842;52.426;4.886;2022-09-13T04:25:50;16.57;;;12.90;;
11572;SDS011;5842;52.426;4.886;2022-09-13T04:28:17;15.93;;;11.87;;
11572;SDS011;5842;52.426;4.886;2022-09-13T04:30:45;16.40;;;12.50;;
11572;SDS011;5842;52.426;4.886;2022-09-13T04:33:13;16.23;;;12.67;;
11572;SDS011;5842;52.426;4.886;2022-09-13T04:35:41;17.57;;;12.20;;
11572;SDS011;5842;52.426;4.886;2022-09-13T04:38:09;15.27;;;12.27;;
11572;SDS011;5842;52.426;4.886;2022-09-13T04:40:36;15.43;;;11.97;;
11572;SDS011;5842;52.426;4.886;2022-09-13T04:43:05;15.00;;;11.70;;
11572;SDS011;5842;52.426;4.886;2022-09-13T04:45:32;14.03;;;12.00;;
11572;SDS011;5842;52.426;4.886;2022-09-13T04:47:59;15.33;;;11.77;;
11572;SDS011;5842;52.426;4.886;2022-09-13T04:50:26;15.50;;;11.07;;
11572;SDS011;5842;52.426;4.886;2022-09-13T04:52:54;15.70;;;11.90;;
11572;SDS011;5842;52.426;4.886;2022-09-13T04:55:21;14.33;;;11.00;;
11572;SDS011;5842;52.426;4.886;2022-09-13T04:57:51;19.47;;;14.73;;
11572;SDS011;5842;52.426;4.886;2022-09-13T05:00:22;21.33;;;15.90;;
11572;SDS011;5842;52.426;4.886;2022-09-13T05:02:53;17.93;;;12.80;;
11572;SDS011;5842;52.426;4.886;2022-09-13T05:05:21;15.83;;;12.43;;
11572;SDS011;5842;52.426;4.886;2022-09-13T05:07:49;12.73;;;10.03;;
11572;SDS011;5842;52.426;4.886;2022-09-13T05:10:17;14.97;;;9.40;;
11572;SDS011;5842;52.426;4.886;2022-09-13T05:12:44;13.40;;;8.70;;
11572;SDS011;5842;52.426;4.886;2022-09-13T05:15:11;13.70;;;8.13;;
11572;SDS011;5842;52.426;4.886;2022-09-13T05:17:42;11.67;;;6.87;;
11572;SDS011;5842;52.426;4.886;2022-09-13T05:20:09;10.63;;;6.63;;
11572;SDS011;5842;52.426;4.886;2022-09-13T05:22:37;10.37;;;6.97;;
11572;SDS011;5842;52.426;4.886;2022-09-13T05:25:04;9.00;;;6.10;;
11572;SDS011;5842;52.426;4.886;2022-09-13T05:27:32;8.30;;;5.07;;
11572;SDS011;5842;52.426;4.886;2022-09-13T05:29:59;8.53;;;5.47;;
11572;SDS011;5842;52.426;4.886;2022-09-13T05:32:26;8.53;;;4.53;;
11572;SDS011;5842;52.426;4.886;2022-09-13T05:34:55;9.93;;;4.73;;
11572;SDS011;5842;52.426;4.886;2022-09-13T05:37:22;7.63;;;4.83;;
11572;SDS011;5842;52.426;4.886;2022-09-13T05:39:49;6.37;;;4.13;;
11572;SDS011;5842;52.426;4.886;2022-09-13T05:42:16;6.10;;;3.67;;
11572;SDS011;5842;52.426;4.886;2022-09-13T05:44:43;4.77;;;3.40;;
11572;SDS011;5842;52.426;4.886;2022-09-13T05:47:11;7.60;;;3.00;;
11572;SDS011;5842;52.426;4.886;2022-09-13T05:49:39;3.97;;;2.83;;
11572;SDS011;5842;52.426;4.886;2022-09-13T05:52:09;4.07;;;2.60;;
11572;SDS011;5842;52.426;4.886;2022-09-13T05:54:36;4.73;;;2.63;;
11572;SDS011;5842;52.426;4.886;2022-09-13T05:57:06;6.67;;;2.93;;
11572;SDS011;5842;52.426;4.886;2022-09-13T05:59:33;3.40;;;2.80;;
11572;SDS011;5842;52.426;4.886;2022-09-13T06:02:00;5.70;;;3.10;;
11572;SDS011;5842;52.426;4.886;2022-09-13T06:04:28;7.10;;;2.70;;
11572;SDS011;5842;52.426;4.886;2022-09-13T06:06:55;4.50;;;2.80;;
11572;SDS011;5842;52.426;4.886;2022-09-13T06:09:23;8.47;;;3.10;;
11572;SDS011;5842;52.426;4.886;2022-09-13T06:11:51;5.27;;;2.80;;
11572;SDS011;5842;52.426;4.886;2022-09-13T06:14:18;4.40;;;2.37;;
11572;SDS011;5842;52.426;4.886;2022-09-13T06:16:45;5.27;;;2.50;;
11572;SDS011;5842;52.426;4.886;2022-09-13T06:19:12;3.40;;;2.50;;
11572;SDS011;5842;52.426;4.886;2022-09-13T06:21:39;5.00;;;2.60;;
11572;SDS011;5842;52.426;4.886;2022-09-13T06:24:06;4.13;;;2.20;;
11572;SDS011;5842;52.426;4.886;2022-09-13T06:26:35;3.47;;;2.60;;
11572;SDS011;5842;52.426;4.886;2022-09-13T06:29:02;8.17;;;3.00;;
11572;SDS011;5842;52.426;4.886;2022-09-13T06:31:29;2.97;;;2.10;;
11572;SDS011;5842;52.426;4.886;2022-09-13T06:33:57;4.43;;;2.40;;
11572;SDS011;5842;52.426;4.886;2022-09-13T06:36:26;3.20;;;2.03;;
11572;SDS011;5842;52.426;4.886;2022-09-13T06:38:53;2.93;;;1.80;;
11572;SDS011;5842;52.426;4.886;2022-09-13T06:41:22;3.63;;;2.10;;
11572;SDS011;5842;52.426;4.886;2022-09-13T06:43:53;4.57;;;1.90;;
11572;SDS011;5842;52.426;4.886;2022-09-13T06:46:22;2.87;;;1.60;;
11572;SDS011;5842;52.426;4.886;2022-09-13T06:48:50;3.23;;;2.00;;
11572;SDS011;5842;52.426;4.886;2022-09-13T06:51:18;5.40;;;2.40;;
11572;SDS011;5842;52.426;4.886;2022-09-13T06:53:46;3.37;;;1.93;;
11572;SDS011;5842;52.426;4.886;2022-09-13T06:56:17;2.20;;;1.77;;
11572;SDS011;5842;52.426;4.886;2022-09-13T06:58:45;2.07;;;1.70;;
11572;SDS011;5842;52.426;4.886;2022-09-13T07:01:16;3.80;;;1.90;;
11572;SDS011;5842;52.426;4.886;2022-09-13T07:03:45;5.73;;;2.20;;
11572;SDS011;5842;52.426;4.886;2022-09-13T07:06:13;7.27;;;2.40;;
11572;SDS011;5842;52.426;4.886;2022-09-13T07:08:41;3.90;;;1.70;;
11572;SDS011;5842;52.426;4.886;2022-09-13T07:11:09;2.53;;;1.50;;
11572;SDS011;5842;52.426;4.886;2022-09-13T07:13:39;2.73;;;1.40;;
11572;SDS011;5842;52.426;4.886;2022-09-13T07:16:08;4.70;;;1.70;;
11572;SDS011;5842;52.426;4.886;2022-09-13T07:18:37;3.40;;;1.90;;
11572;SDS011;5842;52.426;4.886;2022-09-13T07:38:37;3.33;;;1.50;;
11572;SDS011;5842;52.426;4.886;2022-09-13T07:41:06;2.20;;;1.40;;
11572;SDS011;5842;52.426;4.886;2022-09-13T08:25:33;4.82;;;2.30;;
11572;SDS011;5842;52.426;4.886;2022-09-13T10:06:19;4.38;;;1.33;;
11572;SDS011;5842;52.426;4.886;2022-09-13T10:08:53;6.70;;;1.70;;
11572;SDS011;5842;52.426;4.886;2022-09-13T10:11:37;4.13;;;1.40;;
11572;SDS011;5842;52.426;4.886;2022-09-13T10:14:08;3.80;;;1.30;;
11572;SDS011;5842;52.426;4.886;2022-09-13T10:17:00;3.63;;;1.30;;
11572;SDS011;5842;52.426;4.886;2022-09-13T10:19:30;4.03;;;1.50;;
11572;SDS011;5842;52.426;4.886;2022-09-13T10:22:00;2.93;;;1.30;;
11572;SDS011;5842;52.426;4.886;2022-09-13T10:24:30;6.20;;;1.40;;
11572;SDS011;5842;52.426;4.886;2022-09-13T10:26:57;3.17;;;1.20;;
11572;SDS011;5842;52.426;4.886;2022-09-13T10:29:25;4.40;;;1.43;;
11572;SDS011;5842;52.426;4.886;2022-09-13T10:31:53;7.13;;;1.30;;
11572;SDS011;5842;52.426;4.886;2022-09-13T10:34:23;4.38;;;1.45;;
11572;SDS011;5842;52.426;4.886;2022-09-13T10:36:55;4.38;;;1.25;;
11572;SDS011;5842;52.426;4.886;2022-09-13T10:39:27;4.93;;;1.10;;
11572;SDS011;5842;52.426;4.886;2022-09-13T10:41:58;2.77;;;1.10;;
11572;SDS011;5842;52.426;4.886;2022-09-13T10:44:28;5.47;;;1.20;;
11572;SDS011;5842;52.426;4.886;2022-09-13T10:46:58;5.70;;;1.60;;
11572;SDS011;5842;52.426;4.886;2022-09-13T10:49:36;3.23;;;1.10;;
11572;SDS011;5842;52.426;4.886;2022-09-13T10:58:18;2.38;;;1.15;;
11572;SDS011;5842;52.426;4.886;2022-09-13T11:00:54;3.60;;;1.47;;
11572;SDS011;5842;52.426;4.886;2022-09-13T11:06:59;3.53;;;1.20;;
11572;SDS011;5842;52.426;4.886;2022-09-13T11:09:40;2.55;;;1.10;;
11572;SDS011;5842;52.426;4.886;2022-09-13T11:12:16;5.28;;;1.25;;
11572;SDS011;5842;52.426;4.886;2022-09-13T11:14:50;4.22;;;1.00;;
11572;SDS011;5842;52.426;4.886;2022-09-13T11:17:30;3.10;;;1.20;;
11572;SDS011;5842;52.426;4.886;2022-09-13T11:20:16;3.53;;;1.08;;
11572;SDS011;5842;52.426;4.886;2022-09-13T11:22:58;3.80;;;1.40;;
11572;SDS011;5842;52.426;4.886;2022-09-13T11:25:50;2.78;;;1.25;;
11572;SDS011;5842;52.426;4.886;2022-09-13T11:28:32;2.72;;;1.20;;
11572;SDS011;5842;52.426;4.886;2022-09-13T11:31:15;5.25;;;1.95;;
11572;SDS011;5842;52.426;4.886;2022-09-13T11:33:59;4.03;;;1.30;;
11572;SDS011;5842;52.426;4.886;2022-09-13T11:36:48;3.63;;;1.10;;
11572;SDS011;5842;52.426;4.886;2022-09-13T11:39:31;2.03;;;0.90;;
11572;SDS011;5842;52.426;4.886;2022-09-13T11:42:05;2.88;;;1.15;;
11572;SDS011;5842;52.426;4.886;2022-09-13T11:48:05;4.23;;;1.17;;
11572;SDS011;5842;52.426;4.886;2022-09-13T11:50:54;3.65;;;1.10;;
11572;SDS011;5842;52.426;4.886;2022-09-13T11:53:32;3.85;;;1.10;;
11572;SDS011;5842;52.426;4.886;2022-09-13T11:56:23;4.30;;;1.27;;
11572;SDS011;5842;52.426;4.886;2022-09-13T11:58:57;3.05;;;1.10;;
11572;SDS011;5842;52.426;4.886;2022-09-13T12:01:36;2.53;;;1.17;;
11572;SDS011;5842;52.426;4.886;2022-09-13T12:04:11;2.33;;;1.00;;
11572;SDS011;5842;52.426;4.886;2022-09-13T12:06:47;3.60;;;1.20;;
11572;SDS011;5842;52.426;4.886;2022-09-13T12:09:20;3.17;;;1.10;;
11572;SDS011;5842;52.426;4.886;2022-09-13T12:11:51;2.25;;;1.60;;
11572;SDS011;5842;52.426;4.886;2022-09-13T12:14:25;2.83;;;1.65;;
11572;SDS011;5842;52.426;4.886;2022-09-13T12:16:57;4.68;;;1.42;;
11572;SDS011;5842;52.426;4.886;2022-09-13T12:19:30;4.55;;;1.65;;
11572;SDS011;5842;52.426;4.886;2022-09-13T12:22:07;4.35;;;1.88;;
11572;SDS011;5842;52.426;4.886;2022-09-13T12:24:37;3.95;;;1.40;;
11572;SDS011;5842;52.426;4.886;2022-09-13T12:27:11;3.55;;;1.30;;
11572;SDS011;5842;52.426;4.886;2022-09-13T12:29:49;4.60;;;1.27;;
11572;SDS011;5842;52.426;4.886;2022-09-13T12:32:18;3.50;;;1.30;;
11572;SDS011;5842;52.426;4.886;2022-09-13T12:34:49;4.07;;;1.30;;
11572;SDS011;5842;52.426;4.886;2022-09-13T12:40:31;4.38;;;1.52;;
11572;SDS011;5842;52.426;4.886;2022-09-13T12:43:11;2.05;;;1.13;;
11572;SDS011;5842;52.426;4.886;2022-09-13T12:49:02;8.35;;;1.25;;
11572;SDS011;5842;52.426;4.886;2022-09-13T12:51:46;2.75;;;1.20;;
11572;SDS011;5842;52.426;4.886;2022-09-13T12:54:40;2.00;;;1.10;;
11572;SDS011;5842;52.426;4.886;2022-09-13T12:57:25;2.83;;;1.10;;
11572;SDS011;5842;52.426;4.886;2022-09-13T13:00:10;2.03;;;1.20;;
11572;SDS011;5842;52.426;4.886;2022-09-13T13:02:48;5.00;;;1.30;;
11572;SDS011;5842;52.426;4.886;2022-09-13T13:05:20;3.15;;;1.27;;
11572;SDS011;5842;52.426;4.886;2022-09-13T13:07:55;3.22;;;1.05;;
11572;SDS011;5842;52.426;4.886;2022-09-13T13:10:26;2.13;;;1.02;;
11572;SDS011;5842;52.426;4.886;2022-09-13T13:13:07;3.30;;;1.10;;
11572;SDS011;5842;52.426;4.886;2022-09-13T13:15:56;2.55;;;0.95;;
11572;SDS011;5842;52.426;4.886;2022-09-13T13:18:27;4.20;;;1.13;;
11572;SDS011;5842;52.426;4.886;2022-09-13T13:21:04;3.38;;;1.20;;
11572;SDS011;5842;52.426;4.886;2022-09-13T13:23:49;3.33;;;1.30;;
11572;SDS011;5842;52.426;4.886;2022-09-13T13:27:00;3.30;;;1.42;;
11572;SDS011;5842;52.426;4.886;2022-09-13T13:33:16;2.72;;;1.20;;
11572;SDS011;5842;52.426;4.886;2022-09-13T13:35:46;4.47;;;1.25;;
11572;SDS011;5842;52.426;4.886;2022-09-13T13:38:32;3.17;;;1.20;;
11572;SDS011;5842;52.426;4.886;2022-09-13T13:50:27;3.22;;;1.17;;
11572;SDS011;5842;52.426;4.886;2022-09-13T13:52:56;2.13;;;1.10;;
11572;SDS011;5842;52.426;4.886;2022-09-13T13:55:42;4.53;;;1.23;;
11572;SDS011;5842;52.426;4.886;2022-09-13T13:58:14;6.00;;;1.23;;
11572;SDS011;5842;52.426;4.886;2022-09-13T14:00:54;6.60;;;1.50;;
11572;SDS011;5842;52.426;4.886;2022-09-13T14:03:26;3.37;;;1.00;;
11572;SDS011;5842;52.426;4.886;2022-09-13T14:06:01;3.60;;;1.53;;
11572;SDS011;5842;52.426;4.886;2022-09-13T14:08:42;3.30;;;1.20;;
11572;SDS011;5842;52.426;4.886;2022-09-13T14:11:21;2.93;;;1.17;;
11572;SDS011;5842;52.426;4.886;2022-09-13T14:14:02;3.63;;;1.23;;
11572;SDS011;5842;52.426;4.886;2022-09-13T14:16:48;4.23;;;1.50;;
11572;SDS011;5842;52.426;4.886;2022-09-13T14:19:24;3.00;;;1.17;;
11572;SDS011;5842;52.426;4.886;2022-09-13T14:22:14;5.33;;;1.30;;
11572;SDS011;5842;52.426;4.886;2022-09-13T14:24:44;2.90;;;1.67;;
11572;SDS011;5842;52.426;4.886;2022-09-13T14:27:13;2.77;;;1.30;;
11572;SDS011;5842;52.426;4.886;2022-09-13T14:29:45;2.53;;;1.30;;
11572;SDS011;5842;52.426;4.886;2022-09-13T14:32:18;4.57;;;1.27;;
11572;SDS011;5842;52.426;4.886;2022-09-13T14:34:55;3.27;;;1.10;;
11572;SDS011;5842;52.426;4.886;2022-09-13T14:37:25;2.80;;;1.00;;
11572;SDS011;5842;52.426;4.886;2022-09-13T14:39:56;4.50;;;1.30;;
11572;SDS011;5842;52.426;4.886;2022-09-13T14:42:25;3.53;;;1.30;;
11572;SDS011;5842;52.426;4.886;2022-09-13T14:44:54;3.53;;;1.10;;
11572;SDS011;5842;52.426;4.886;2022-09-13T14:47:25;3.83;;;1.10;;
11572;SDS011;5842;52.426;4.886;2022-09-13T14:49:57;3.90;;;1.10;;
11572;SDS011;5842;52.426;4.886;2022-09-13T14:52:29;3.57;;;1.00;;
11572;SDS011;5842;52.426;4.886;2022-09-13T14:55:01;3.13;;;1.00;;
11572;SDS011;5842;52.426;4.886;2022-09-13T14:57:35;3.73;;;1.30;;
11572;SDS011;5842;52.426;4.886;2022-09-13T15:00:06;3.17;;;1.20;;
11572;SDS011;5842;52.426;4.886;2022-09-13T15:02:42;3.22;;;1.20;;
11572;SDS011;5842;52.426;4.886;2022-09-13T15:05:14;2.77;;;1.17;;
11572;SDS011;5842;52.426;4.886;2022-09-13T15:07:43;1.80;;;1.10;;
11572;SDS011;5842;52.426;4.886;2022-09-13T15:10:19;4.87;;;1.10;;
11572;SDS011;5842;52.426;4.886;2022-09-13T15:12:51;3.00;;;1.13;;
11572;SDS011;5842;52.426;4.886;2022-09-13T15:15:23;2.05;;;1.02;;
11572;SDS011;5842;52.426;4.886;2022-09-13T15:17:53;3.22;;;1.13;;
11572;SDS011;5842;52.426;4.886;2022-09-13T15:20:21;3.47;;;1.25;;
11572;SDS011;5842;52.426;4.886;2022-09-13T15:22:50;2.97;;;1.38;;
11572;SDS011;5842;52.426;4.886;2022-09-13T15:25:22;4.22;;;1.30;;
11572;SDS011;5842;52.426;4.886;2022-09-13T15:27:52;3.63;;;1.13;;
11572;SDS011;5842;52.426;4.886;2022-09-13T15:30:24;6.07;;;1.50;;
11572;SDS011;5842;52.426;4.886;2022-09-13T15:33:05;4.83;;;1.40;;
11572;SDS011;5842;52.426;4.886;2022-09-13T15:35:43;2.83;;;1.30;;
11572;SDS011;5842;52.426;4.886;2022-09-13T15:38:15;4.17;;;1.40;;
11572;SDS011;5842;52.426;4.886;2022-09-13T15:40:47;4.43;;;1.40;;
11572;SDS011;5842;52.426;4.886;2022-09-13T15:43:27;3.57;;;1.43;;
11572;SDS011;5842;52.426;4.886;2022-09-13T15:45:57;3.63;;;1.53;;
11572;SDS011;5842;52.426;4.886;2022-09-13T15:48:26;3.00;;;1.30;;
11572;SDS011;5842;52.426;4.886;2022-09-13T15:51:02;3.20;;;1.17;;
11572;SDS011;5842;52.426;4.886;2022-09-13T15:53:34;3.43;;;1.40;;
11572;SDS011;5842;52.426;4.886;2022-09-13T15:56:03;3.03;;;1.20;;
11572;SDS011;5842;52.426;4.886;2022-09-13T15:58:31;4.60;;;1.40;;
11572;SDS011;5842;52.426;4.886;2022-09-13T16:01:01;3.40;;;1.20;;
11572;SDS011;5842;52.426;4.886;2022-09-13T16:03:29;5.37;;;1.80;;
11572;SDS011;5842;52.426;4.886;2022-09-13T16:05:57;4.00;;;1.60;;
11572;SDS011;5842;52.426;4.886;2022-09-13T16:08:24;5.57;;;2.03;;
11572;SDS011;5842;52.426;4.886;2022-09-13T16:10:51;5.43;;;1.50;;
11572;SDS011;5842;52.426;4.886;2022-09-13T16:13:18;5.10;;;1.70;;
11572;SDS011;5842;52.426;4.886;2022-09-13T16:15:48;4.10;;;1.63;;
11572;SDS011;5842;52.426;4.886;2022-09-13T16:18:16;5.20;;;1.60;;
11572;SDS011;5842;52.426;4.886;2022-09-13T16:20:44;5.37;;;1.40;;
11572;SDS011;5842;52.426;4.886;2022-09-13T16:23:11;4.50;;;1.60;;
11572;SDS011;5842;52.426;4.886;2022-09-13T16:25:38;5.77;;;1.70;;
11572;SDS011;5842;52.426;4.886;2022-09-13T16:28:06;4.60;;;1.67;;
11572;SDS011;5842;52.426;4.886;2022-09-13T16:30:33;3.87;;;1.53;;
11572;SDS011;5842;52.426;4.886;2022-09-13T16:33:00;5.60;;;1.80;;
11572;SDS011;5842;52.426;4.886;2022-09-13T16:35:29;5.37;;;1.50;;
11572;SDS011;5842;52.426;4.886;2022-09-13T16:37:57;6.87;;;1.70;;
11572;SDS011;5842;52.426;4.886;2022-09-13T16:40:24;6.30;;;1.83;;
11572;SDS011;5842;52.426;4.886;2022-09-13T16:42:51;4.80;;;1.40;;
11572;SDS011;5842;52.426;4.886;2022-09-13T16:45:20;4.80;;;1.67;;
11572;SDS011;5842;52.426;4.886;2022-09-13T16:47:47;5.07;;;1.47;;
11572;SDS011;5842;52.426;4.886;2022-09-13T16:50:14;7.03;;;1.60;;
11572;SDS011;5842;52.426;4.886;2022-09-13T16:52:43;5.10;;;1.70;;
11572;SDS011;5842;52.426;4.886;2022-09-13T16:55:10;6.43;;;1.97;;
11572;SDS011;5842;52.426;4.886;2022-09-13T16:57:37;5.07;;;1.57;;
11572;SDS011;5842;52.426;4.886;2022-09-13T17:00:05;7.97;;;1.97;;
11572;SDS011;5842;52.426;4.886;2022-09-13T17:02:35;3.00;;;1.80;;
11572;SDS011;5842;52.426;4.886;2022-09-13T17:05:04;5.77;;;1.90;;
11572;SDS011;5842;52.426;4.886;2022-09-13T17:07:32;6.40;;;1.60;;
11572;SDS011;5842;52.426;4.886;2022-09-13T17:10:02;5.03;;;1.60;;
11572;SDS011;5842;52.426;4.886;2022-09-13T17:12:31;5.30;;;1.70;;
11572;SDS011;5842;52.426;4.886;2022-09-13T17:14:58;6.80;;;1.50;;
11572;SDS011;5842;52.426;4.886;2022-09-13T17:17:25;3.40;;;1.60;;
11572;SDS011;5842;52.426;4.886;2022-09-13T17:19:57;3.50;;;1.57;;
11572;SDS011;5842;52.426;4.886;2022-09-13T17:22:27;4.67;;;1.90;;
11572;SDS011;5842;52.426;4.886;2022-09-13T17:24:54;3.90;;;1.50;;
11572;SDS011;5842;52.426;4.886;2022-09-13T17:27:22;4.60;;;1.57;;
11572;SDS011;5842;52.426;4.886;2022-09-13T17:29:50;6.63;;;1.50;;
11572;SDS011;5842;52.426;4.886;2022-09-13T17:32:17;4.73;;;1.67;;
11572;SDS011;5842;52.426;4.886;2022-09-13T17:34:45;5.70;;;1.87;;
11572;SDS011;5842;52.426;4.886;2022-09-13T17:37:12;6.43;;;1.63;;
11572;SDS011;5842;52.426;4.886;2022-09-13T17:39:40;3.90;;;1.50;;
11572;SDS011;5842;52.426;4.886;2022-09-13T17:42:07;5.17;;;1.50;;
11572;SDS011;5842;52.426;4.886;2022-09-13T17:44:38;4.50;;;1.73;;
11572;SDS011;5842;52.426;4.886;2022-09-13T17:47:07;5.63;;;1.53;;
11572;SDS011;5842;52.426;4.886;2022-09-13T17:49:34;5.90;;;1.40;;
11572;SDS011;5842;52.426;4.886;2022-09-13T17:52:02;5.00;;;2.03;;
11572;SDS011;5842;52.426;4.886;2022-09-13T17:54:29;6.70;;;1.40;;
11572;SDS011;5842;52.426;4.886;2022-09-13T17:56:56;2.60;;;1.20;;
11572;SDS011;5842;52.426;4.886;2022-09-13T17:59:24;5.63;;;1.70;;
11572;SDS011;5842;52.426;4.886;2022-09-13T18:01:53;6.17;;;1.63;;
11572;SDS011;5842;52.426;4.886;2022-09-13T18:04:23;4.10;;;1.70;;
11572;SDS011;5842;52.426;4.886;2022-09-13T18:06:50;6.13;;;1.93;;
11572;SDS011;5842;52.426;4.886;2022-09-13T18:09:18;6.17;;;1.43;;
11572;SDS011;5842;52.426;4.886;2022-09-13T18:11:46;6.37;;;1.77;;
11572;SDS011;5842;52.426;4.886;2022-09-13T18:14:14;4.97;;;1.73;;
11572;SDS011;5842;52.426;4.886;2022-09-13T18:16:43;5.77;;;1.77;;
11572;SDS011;5842;52.426;4.886;2022-09-13T18:19:12;7.60;;;1.83;;
11572;SDS011;5842;52.426;4.886;2022-09-13T18:21:39;6.87;;;1.77;;
11572;SDS011;5842;52.426;4.886;2022-09-13T18:24:08;4.90;;;1.73;;
11572;SDS011;5842;52.426;4.886;2022-09-13T18:26:35;4.07;;;1.83;;
11572;SDS011;5842;52.426;4.886;2022-09-13T18:29:02;4.57;;;1.90;;
11572;SDS011;5842;52.426;4.886;2022-09-13T18:31:32;5.00;;;1.60;;
11572;SDS011;5842;52.426;4.886;2022-09-13T18:34:01;4.53;;;1.70;;
11572;SDS011;5842;52.426;4.886;2022-09-13T18:36:31;5.77;;;1.60;;
11572;SDS011;5842;52.426;4.886;2022-09-13T18:39:01;8.33;;;1.93;;
11572;SDS011;5842;52.426;4.886;2022-09-13T18:41:29;7.27;;;2.03;;
11572;SDS011;5842;52.426;4.886;2022-09-13T18:43:58;4.10;;;1.60;;